createdAt,value
2018-04-27T00:01:20.863Z,7.70
2018-04-27T00:03:49.094Z,7.90
2018-04-27T00:06:17.286Z,7.70
2018-04-27T00:08:45.486Z,7.90
2018-04-27T00:11:13.711Z,7.90
2018-04-27T00:13:41.889Z,7.80
2018-04-27T00:16:10.086Z,8.00
2018-04-27T00:18:38.349Z,8.10
2018-04-27T00:21:06.559Z,7.90
2018-04-27T00:23:35.546Z,7.80
2018-04-27T00:26:03.767Z,7.70
2018-04-27T00:28:31.999Z,8.00
2018-04-27T00:31:00.921Z,8.00
2018-04-27T00:33:29.097Z,8.40
2018-04-27T00:35:57.266Z,8.50
2018-04-27T00:38:25.447Z,8.60
2018-04-27T00:40:53.657Z,8.80
2018-04-27T00:43:21.814Z,9.10
2018-04-27T00:45:50.001Z,8.80
2018-04-27T00:48:18.147Z,8.80
2018-04-27T00:50:46.343Z,8.90
2018-04-27T00:53:15.364Z,8.50
2018-04-27T00:55:44.327Z,8.70
2018-04-27T00:58:12.705Z,8.90
2018-04-27T01:00:40.890Z,8.50
2018-04-27T01:03:09.047Z,8.50
2018-04-27T01:05:37.767Z,8.60
2018-04-27T01:08:05.918Z,8.50
2018-04-27T01:10:34.115Z,7.80
2018-04-27T01:13:02.298Z,7.70
2018-04-27T01:15:31.243Z,7.30
2018-04-27T01:17:59.433Z,7.60
2018-04-27T01:20:27.656Z,7.90
2018-04-27T01:22:55.826Z,7.80
2018-04-27T01:25:24.010Z,8.00
2018-04-27T01:27:52.226Z,8.00
2018-04-27T01:30:20.410Z,7.90
2018-04-27T01:32:48.701Z,7.80
2018-04-27T01:35:17.621Z,7.80
2018-04-27T01:37:45.795Z,7.90
2018-04-27T01:40:13.990Z,7.60
2018-04-27T01:42:42.150Z,7.80
2018-04-27T01:45:10.373Z,8.10
2018-04-27T01:47:39.304Z,7.90
2018-04-27T01:50:07.482Z,7.30
2018-04-27T01:52:35.689Z,7.20
2018-04-27T01:55:03.884Z,6.80
2018-04-27T01:57:32.038Z,7.00
2018-04-27T02:00:00.265Z,6.90
2018-04-27T02:02:28.478Z,6.80
2018-04-27T02:04:56.658Z,6.90
2018-04-27T02:07:24.838Z,7.20
2018-04-27T02:09:52.997Z,6.90
2018-04-27T02:12:21.122Z,6.40
2018-04-27T02:14:50.042Z,6.60
2018-04-27T02:17:18.185Z,6.20
2018-04-27T02:19:47.080Z,6.20
2018-04-27T02:22:15.948Z,6.20
2018-04-27T02:24:44.125Z,6.50
2018-04-27T02:27:13.009Z,6.30
2018-04-27T02:29:41.117Z,6.20
2018-04-27T02:32:09.264Z,5.90
2018-04-27T02:34:38.169Z,6.00
2018-04-27T02:37:06.276Z,6.40
2018-04-27T02:39:34.455Z,6.30
2018-04-27T02:42:02.576Z,6.50
2018-04-27T02:44:31.490Z,6.70
2018-04-27T02:46:59.651Z,6.40
2018-04-27T02:49:27.772Z,6.80
2018-04-27T02:51:55.909Z,7.10
2018-04-27T02:54:24.103Z,6.90
2018-04-27T02:56:52.266Z,6.90
2018-04-27T02:59:20.513Z,7.20
2018-04-27T03:01:48.666Z,7.30
2018-04-27T03:04:17.552Z,7.10
2018-04-27T03:06:46.487Z,6.80
2018-04-27T03:09:14.651Z,6.60
2018-04-27T03:11:42.809Z,6.80
2018-04-27T03:14:10.981Z,6.40
2018-04-27T03:16:39.104Z,7.00
2018-04-27T03:19:07.279Z,6.90
2018-04-27T03:21:35.698Z,7.00
2018-04-27T03:24:04.734Z,6.60
2018-04-27T03:26:32.894Z,6.60
2018-04-27T03:29:01.091Z,6.90
2018-04-27T03:31:29.209Z,5.90
2018-04-27T03:33:57.365Z,6.30
2018-04-27T03:36:26.272Z,5.70
2018-04-27T03:38:55.184Z,6.10
2018-04-27T03:41:23.340Z,6.60
2018-04-27T03:43:51.468Z,6.60
2018-04-27T03:46:19.629Z,6.10
2018-04-27T03:48:47.752Z,5.90
2018-04-27T03:51:15.868Z,6.10
2018-04-27T03:53:44.000Z,5.70
2018-04-27T03:56:12.149Z,6.00
2018-04-27T03:58:40.299Z,6.40
2018-04-27T04:01:26.380Z,6.70
2018-04-27T04:04:12.749Z,6.60
2018-04-27T04:06:40.884Z,6.80
2018-04-27T04:09:09.047Z,6.90
2018-04-27T04:11:37.188Z,7.00
2018-04-27T04:14:05.305Z,7.00
2018-04-27T04:16:34.215Z,6.60
2018-04-27T04:19:02.368Z,6.80
2018-04-27T04:21:30.474Z,6.40
2018-04-27T04:23:58.626Z,6.40
2018-04-27T04:26:26.816Z,7.30
2018-04-27T04:28:54.932Z,7.10
2018-04-27T04:31:23.086Z,7.40
2018-04-27T04:33:51.321Z,7.50
2018-04-27T04:36:19.448Z,7.50
2018-04-27T04:38:47.589Z,7.20
2018-04-27T04:41:15.729Z,7.60
2018-04-27T04:43:44.641Z,7.20
2018-04-27T04:46:12.852Z,7.30
2018-04-27T04:48:40.996Z,7.50
2018-04-27T04:51:09.117Z,7.70
2018-04-27T04:53:37.365Z,7.50
2018-04-27T04:56:05.488Z,8.10
2018-04-27T04:58:33.649Z,8.00
2018-04-27T05:01:02.539Z,8.00
2018-04-27T05:03:31.461Z,7.80
2018-04-27T05:05:59.630Z,8.00
2018-04-27T05:08:27.764Z,8.20
2018-04-27T05:10:56.784Z,8.40
2018-04-27T05:13:24.920Z,8.20
2018-04-27T05:15:53.032Z,8.60
2018-04-27T05:21:34.265Z,8.40
2018-04-27T05:24:02.430Z,8.90
2018-04-27T05:26:30.674Z,9.10
2018-04-27T05:28:58.768Z,8.80
2018-04-27T05:31:26.910Z,9.20
2018-04-27T05:33:55.095Z,8.90
2018-04-27T05:36:23.226Z,9.40
2018-04-27T05:38:51.385Z,9.30
2018-04-27T05:41:19.522Z,9.20
2018-04-27T05:43:47.644Z,9.40
2018-04-27T05:46:15.802Z,9.70
2018-04-27T05:48:43.920Z,9.80
2018-04-27T05:51:12.079Z,10.00
2018-04-27T05:53:40.989Z,9.20
2018-04-27T05:56:09.114Z,9.20
2018-04-27T05:58:37.263Z,9.00
2018-04-27T06:01:05.447Z,9.10
2018-04-27T06:03:51.352Z,9.50
2018-04-27T06:06:19.534Z,9.50
2018-04-27T06:08:47.666Z,9.80
2018-04-27T06:11:15.818Z,10.40
2018-04-27T06:13:44.022Z,9.70
2018-04-27T06:16:12.172Z,10.40
2018-04-27T06:18:40.351Z,10.50
2018-04-27T06:21:08.539Z,10.10
2018-04-27T06:23:36.698Z,10.20
2018-04-27T06:26:04.873Z,10.80
2018-04-27T06:28:35.763Z,10.70
2018-04-27T06:31:04.975Z,10.80
2018-04-27T06:33:33.105Z,10.50
2018-04-27T06:36:01.364Z,11.20
2018-04-27T06:38:29.524Z,11.00
2018-04-27T06:40:57.697Z,10.90
2018-04-27T06:43:25.866Z,11.10
2018-04-27T06:45:54.026Z,10.90
2018-04-27T06:48:22.193Z,11.10
2018-04-27T06:50:50.364Z,11.00
2018-04-27T06:53:18.494Z,11.40
2018-04-27T06:55:46.626Z,11.80
2018-04-27T06:58:14.884Z,11.30
2018-04-27T07:00:43.038Z,11.40
2018-04-27T07:03:11.933Z,11.80
2018-04-27T07:05:40.841Z,11.80
2018-04-27T07:08:09.026Z,11.50
2018-04-27T07:10:37.172Z,12.00
2018-04-27T07:13:06.099Z,12.40
2018-04-27T07:15:34.270Z,12.30
2018-04-27T07:18:03.277Z,12.60
2018-04-27T07:20:31.432Z,12.50
2018-04-27T07:22:59.625Z,12.80
2018-04-27T07:25:27.891Z,12.80
2018-04-27T07:27:56.128Z,12.70
2018-04-27T07:30:24.660Z,13.00
2018-04-27T07:32:52.780Z,12.90
2018-04-27T07:35:20.974Z,12.30
2018-04-27T07:37:49.167Z,12.80
2018-04-27T07:40:17.308Z,13.10
2018-04-27T07:42:45.465Z,13.20
2018-04-27T07:45:14.445Z,13.90
2018-04-27T07:47:42.585Z,14.10
2018-04-27T07:50:10.754Z,14.00
2018-04-27T07:52:38.909Z,14.30
2018-04-27T07:55:07.068Z,14.30
2018-04-27T07:57:35.217Z,14.20
2018-04-27T08:00:04.114Z,14.40
2018-04-27T08:02:33.032Z,13.90
2018-04-27T08:05:01.174Z,14.10
2018-04-27T08:07:30.067Z,13.80
2018-04-27T08:09:58.977Z,14.10
2018-04-27T08:12:27.186Z,14.00
2018-04-27T08:14:55.426Z,14.00
2018-04-27T08:17:23.599Z,13.70
2018-04-27T08:19:51.769Z,13.70
2018-04-27T08:22:19.953Z,14.00
2018-04-27T08:24:48.094Z,13.30
2018-04-27T08:27:17.054Z,13.50
2018-04-27T08:29:45.328Z,13.60
2018-04-27T08:32:13.503Z,13.90
2018-04-27T08:34:41.636Z,13.80
2018-04-27T08:37:09.795Z,14.00
2018-04-27T08:39:37.967Z,14.10
2018-04-27T08:42:06.178Z,14.00
2018-04-27T08:44:34.332Z,13.80
2018-04-27T08:47:02.456Z,14.00
2018-04-27T08:49:31.382Z,14.10
2018-04-27T08:51:59.547Z,13.70
2018-04-27T08:54:27.711Z,13.70
2018-04-27T08:56:55.877Z,14.00
2018-04-27T08:59:24.795Z,14.10
2018-04-27T09:01:52.919Z,14.00
2018-04-27T09:04:21.161Z,14.00
2018-04-27T09:06:49.343Z,13.60
2018-04-27T09:09:17.487Z,14.20
2018-04-27T09:11:45.657Z,14.30
2018-04-27T09:14:13.773Z,14.30
2018-04-27T09:16:41.897Z,14.50
2018-04-27T09:19:10.039Z,14.60
2018-04-27T09:21:39.023Z,14.60
2018-04-27T09:24:07.158Z,14.80
2018-04-27T09:26:35.284Z,14.80
2018-04-27T09:29:04.190Z,14.90
2018-04-27T09:31:32.399Z,14.00
2018-04-27T09:34:00.571Z,14.50
2018-04-27T09:36:28.729Z,14.70
2018-04-27T09:38:56.898Z,14.80
2018-04-27T09:41:25.080Z,15.40
2018-04-27T09:43:53.228Z,16.20
2018-04-27T09:46:21.393Z,15.90
2018-04-27T09:48:49.573Z,15.80
2018-04-27T09:51:17.728Z,15.90
2018-04-27T09:53:46.605Z,15.80
2018-04-27T09:56:14.761Z,16.10
2018-04-27T09:58:42.877Z,16.00
2018-04-27T10:01:11.039Z,16.20
2018-04-27T10:03:39.180Z,15.80
2018-04-27T10:06:07.304Z,16.10
2018-04-27T10:08:35.461Z,16.10
2018-04-27T10:11:03.634Z,16.50
2018-04-27T10:13:31.805Z,16.40
2018-04-27T10:15:59.947Z,16.80
2018-04-27T10:18:28.065Z,17.20
2018-04-27T10:20:56.192Z,17.30
2018-04-27T10:23:24.332Z,17.30
2018-04-27T10:25:52.474Z,18.30
2018-04-27T10:28:20.645Z,18.30
2018-04-27T10:30:48.838Z,18.50
2018-04-27T10:33:17.023Z,18.90
2018-04-27T10:35:45.190Z,18.60
2018-04-27T10:38:13.374Z,19.60
2018-04-27T10:40:41.536Z,20.30
2018-04-27T10:43:09.687Z,20.80
2018-04-27T10:45:37.808Z,21.00
2018-04-27T10:48:05.945Z,20.40
2018-04-27T10:50:34.062Z,20.80
2018-04-27T10:53:02.964Z,20.90
2018-04-27T10:55:31.890Z,20.90
2018-04-27T10:58:00.049Z,20.40
2018-04-27T11:00:28.195Z,21.30
2018-04-27T11:02:57.147Z,22.00
2018-04-27T11:05:25.293Z,21.90
2018-04-27T11:07:53.442Z,22.40
2018-04-27T11:10:22.576Z,23.00
2018-04-27T11:12:50.728Z,23.70
2018-04-27T11:15:18.939Z,24.50
2018-04-27T11:17:47.101Z,25.00
2018-04-27T11:20:16.218Z,24.10
2018-04-27T11:22:44.761Z,22.80
2018-04-27T11:25:13.954Z,22.30
2018-04-27T11:27:42.117Z,21.40
2018-04-27T11:30:10.269Z,22.30
2018-04-27T11:32:39.257Z,23.10
2018-04-27T11:35:08.209Z,24.60
2018-04-27T11:37:36.325Z,24.00
2018-04-27T11:40:05.216Z,24.20
2018-04-27T11:42:34.110Z,25.90
2018-04-27T11:45:03.153Z,24.60
2018-04-27T11:47:31.277Z,24.40
2018-04-27T11:50:00.203Z,24.20
2018-04-27T11:52:28.418Z,25.80
2018-04-27T11:54:56.583Z,28.80
2018-04-27T11:57:24.746Z,28.90
2018-04-27T11:59:56.346Z,30.30
2018-04-27T12:02:25.273Z,30.80
2018-04-27T12:04:53.394Z,27.00
2018-04-27T12:07:22.296Z,24.80
2018-04-27T12:09:51.184Z,26.90
2018-04-27T12:12:19.401Z,29.10
2018-04-27T12:14:47.575Z,27.60
2018-04-27T12:17:15.718Z,27.50
2018-04-27T12:19:43.866Z,26.70
2018-04-27T12:22:12.755Z,25.10
2018-04-27T12:24:41.685Z,24.90
2018-04-27T12:27:10.286Z,23.50
2018-04-27T12:29:38.520Z,24.00
2018-04-27T12:32:06.640Z,25.40
2018-04-27T12:34:34.879Z,25.90
2018-04-27T12:37:03.010Z,24.10
2018-04-27T12:39:31.167Z,23.60
2018-04-27T12:41:59.470Z,25.10
2018-04-27T12:44:27.677Z,26.50
2018-04-27T12:46:55.839Z,25.20
2018-04-27T12:49:24.003Z,25.60
2018-04-27T12:51:52.128Z,23.70
2018-04-27T12:54:20.390Z,23.00
2018-04-27T12:56:48.547Z,25.10
2018-04-27T12:59:16.699Z,26.20
2018-04-27T13:01:44.846Z,26.90
2018-04-27T13:04:13.778Z,30.30
2018-04-27T13:06:41.892Z,29.80
2018-04-27T13:09:10.142Z,31.20
2018-04-27T13:11:38.578Z,31.60
2018-04-27T13:14:06.717Z,30.40
2018-04-27T13:16:34.910Z,28.30
2018-04-27T13:19:03.844Z,30.20
2018-04-27T13:21:32.034Z,29.60
2018-04-27T13:24:00.150Z,28.80
2018-04-27T13:26:29.139Z,28.70
2018-04-27T13:28:57.252Z,26.50
2018-04-27T13:31:25.404Z,25.00
2018-04-27T13:33:53.562Z,25.30
2018-04-27T13:36:22.483Z,24.50
2018-04-27T13:38:50.631Z,23.00
2018-04-27T13:41:19.987Z,22.20
2018-04-27T13:43:48.150Z,20.90
2018-04-27T13:46:16.510Z,21.40
2018-04-27T13:48:44.645Z,21.90
2018-04-27T13:51:13.577Z,22.90
2018-04-27T13:53:41.700Z,23.70
2018-04-27T13:56:10.620Z,22.60
2018-04-27T13:58:38.833Z,22.60
2018-04-27T14:01:07.026Z,23.10
2018-04-27T14:03:35.169Z,24.00
2018-04-27T14:06:03.276Z,23.60
2018-04-27T14:08:31.479Z,24.60
2018-04-27T14:10:59.637Z,26.90
2018-04-27T14:13:28.561Z,29.60
2018-04-27T14:15:56.694Z,30.00
2018-04-27T14:18:25.847Z,29.00
2018-04-27T14:20:54.052Z,30.20
2018-04-27T14:23:22.197Z,28.60
2018-04-27T14:25:50.316Z,27.30
2018-04-27T14:28:19.227Z,27.60
2018-04-27T14:30:47.413Z,28.20
2018-04-27T14:33:15.516Z,27.50
2018-04-27T14:35:43.669Z,30.30
2018-04-27T14:38:11.834Z,30.60
2018-04-27T14:40:40.000Z,30.80
2018-04-27T14:43:08.181Z,32.50
2018-04-27T14:45:36.457Z,32.20
2018-04-27T14:48:04.580Z,34.00
2018-04-27T14:50:34.478Z,32.20
2018-04-27T14:53:02.595Z,32.30
2018-04-27T14:55:30.704Z,32.70
2018-04-27T14:57:58.861Z,32.50
2018-04-27T15:00:26.979Z,32.20
2018-04-27T15:02:55.899Z,32.50
2018-04-27T15:05:24.024Z,29.50
2018-04-27T15:07:52.202Z,31.10
2018-04-27T15:10:20.336Z,32.20
2018-04-27T15:12:48.505Z,31.80
2018-04-27T15:15:16.686Z,30.30
2018-04-27T15:17:44.858Z,29.30
2018-04-27T15:20:12.995Z,29.20
2018-04-27T15:22:41.139Z,28.30
2018-04-27T15:25:10.168Z,29.20
2018-04-27T15:27:38.281Z,28.40
2018-04-27T15:30:06.404Z,29.30
2018-04-27T15:32:34.524Z,29.80
2018-04-27T15:35:02.709Z,30.20
2018-04-27T15:37:30.855Z,33.20
2018-04-27T15:39:59.112Z,34.90
2018-04-27T15:42:27.192Z,33.30
2018-04-27T15:44:55.309Z,32.50
2018-04-27T15:47:24.370Z,33.00
2018-04-27T15:49:52.500Z,32.80
2018-04-27T15:52:20.629Z,33.00
2018-04-27T15:54:48.881Z,32.60
2018-04-27T15:57:17.009Z,30.50
2018-04-27T15:59:45.897Z,29.00
2018-04-27T16:02:14.837Z,28.00
2018-04-27T16:04:42.999Z,24.80
2018-04-27T16:07:11.159Z,26.70
2018-04-27T16:09:39.340Z,25.80
2018-04-27T16:12:07.506Z,26.60
2018-04-27T16:14:35.670Z,26.40
2018-04-27T16:17:03.845Z,27.50
2018-04-27T16:19:31.999Z,26.30
2018-04-27T16:22:00.888Z,27.40
2018-04-27T16:24:29.792Z,28.30
2018-04-27T16:26:57.941Z,26.80
2018-04-27T16:29:26.832Z,23.40
2018-04-27T16:31:55.741Z,23.50
2018-04-27T16:34:24.637Z,23.40
2018-04-27T16:36:52.779Z,24.70
2018-04-27T16:39:21.437Z,24.80
2018-04-27T16:41:49.659Z,25.50
2018-04-27T16:44:17.734Z,25.60
2018-04-27T16:46:45.980Z,25.40
2018-04-27T16:49:14.193Z,25.70
2018-04-27T16:51:42.647Z,26.00
2018-04-27T16:54:11.558Z,24.90
2018-04-27T16:56:39.747Z,24.90
2018-04-27T16:59:07.931Z,23.30
2018-04-27T17:01:36.098Z,23.00
2018-04-27T17:04:04.250Z,22.10
2018-04-27T17:06:32.404Z,21.30
2018-04-27T17:09:01.314Z,22.40
2018-04-27T17:11:29.484Z,22.70
2018-04-27T17:13:57.635Z,21.70
2018-04-27T17:16:26.529Z,20.80
2018-04-27T17:18:55.473Z,20.80
2018-04-27T17:21:23.595Z,20.60
2018-04-27T17:23:52.521Z,20.50
2018-04-27T17:26:21.067Z,20.80
2018-04-27T17:28:49.305Z,21.70
2018-04-27T17:31:17.457Z,23.10
2018-04-27T17:33:45.701Z,23.10
2018-04-27T17:36:13.921Z,22.20
2018-04-27T17:38:42.038Z,21.80
2018-04-27T17:41:11.071Z,22.40
2018-04-27T17:43:39.192Z,22.60
2018-04-27T17:46:08.215Z,22.50
2018-04-27T17:48:36.337Z,22.30
2018-04-27T17:51:04.490Z,21.60
2018-04-27T17:53:32.697Z,21.40
2018-04-27T17:56:01.629Z,20.90
2018-04-27T17:58:29.761Z,20.40
2018-04-27T18:00:58.723Z,20.10
2018-04-27T18:03:26.860Z,19.40
2018-04-27T18:05:54.996Z,19.10
2018-04-27T18:08:23.918Z,18.80
2018-04-27T18:10:52.090Z,18.30
2018-04-27T18:13:20.252Z,18.20
2018-04-27T18:15:48.409Z,18.00
2018-04-27T18:18:17.329Z,18.00
2018-04-27T18:20:45.493Z,17.80
2018-04-27T18:23:13.666Z,17.70
2018-04-27T18:25:41.863Z,17.50
2018-04-27T18:28:10.032Z,17.40
2018-04-27T18:30:38.329Z,17.20
2018-04-27T18:33:06.477Z,17.00
2018-04-27T18:35:34.695Z,16.50
2018-04-27T18:38:02.822Z,16.50
2018-04-27T18:40:32.618Z,16.30
2018-04-27T18:43:00.744Z,16.10
2018-04-27T18:45:28.877Z,16.00
2018-04-27T18:47:56.996Z,15.80
2018-04-27T18:50:28.781Z,15.80
2018-04-27T18:52:56.968Z,15.70
2018-04-27T18:55:25.097Z,15.60
2018-04-27T18:57:54.017Z,15.40
2018-04-27T19:00:32.560Z,15.30
2018-04-27T19:03:00.780Z,15.10
2018-04-27T19:05:31.650Z,15.10
2018-04-27T19:07:59.842Z,15.00
2018-04-27T19:10:39.564Z,15.00
2018-04-27T19:13:07.749Z,14.60
2018-04-27T19:15:35.956Z,14.70
2018-04-27T19:18:06.003Z,14.70
2018-04-27T19:20:42.691Z,14.60
2018-04-27T19:23:20.855Z,14.70
2018-04-27T19:25:51.890Z,14.60
2018-04-27T19:31:09.422Z,14.50
2018-04-27T19:33:37.617Z,14.40
2018-04-27T19:36:05.914Z,14.40
2018-04-27T19:38:34.841Z,14.30
2018-04-27T19:41:03.142Z,14.20
2018-04-27T19:43:31.410Z,14.10
2018-04-27T19:45:59.669Z,14.00
2018-04-27T19:48:27.883Z,14.00
2018-04-27T19:50:56.038Z,13.90
2018-04-27T19:53:24.178Z,13.80
2018-04-27T19:55:52.346Z,13.80
2018-04-27T19:58:21.263Z,13.90
2018-04-27T20:00:49.414Z,13.80
2018-04-27T20:03:17.657Z,13.80
2018-04-27T20:05:48.561Z,13.60
2018-04-27T20:08:25.537Z,13.40
2018-04-27T20:10:54.521Z,13.40
2018-04-27T20:13:24.501Z,13.30
2018-04-27T20:15:55.553Z,13.10
2018-04-27T20:18:32.303Z,13.20
2018-04-27T20:21:01.216Z,13.20
2018-04-27T20:23:30.989Z,13.20
2018-04-27T20:26:05.957Z,13.40
2018-04-27T20:28:45.388Z,12.90
2018-04-27T20:31:13.645Z,13.10
2018-04-27T20:33:42.575Z,13.10
2018-04-27T20:36:10.738Z,13.10
2018-04-27T20:38:38.914Z,13.00
2018-04-27T20:41:11.527Z,12.80
2018-04-27T20:43:40.612Z,12.70
2018-04-27T20:46:08.739Z,12.80
2018-04-27T20:48:36.919Z,12.70
2018-04-27T20:51:07.017Z,12.60
2018-04-27T20:56:43.202Z,12.50
2018-04-27T20:59:14.780Z,12.50
2018-04-27T21:01:42.982Z,12.30
2018-04-27T21:04:11.112Z,12.30
2018-04-27T21:06:39.242Z,12.30
2018-04-27T21:09:07.384Z,12.30
2018-04-27T21:11:37.249Z,12.40
2018-04-27T21:14:06.256Z,12.40
2018-04-27T21:16:34.336Z,12.30
2018-04-27T21:19:03.133Z,12.30
2018-04-27T21:21:31.292Z,12.50
2018-04-27T21:24:00.075Z,12.40
2018-04-27T21:26:30.408Z,12.50
2018-04-27T21:28:58.536Z,12.60
2018-04-27T21:31:26.951Z,12.50
2018-04-27T21:33:56.477Z,12.50
2018-04-27T21:36:28.261Z,12.70
2018-04-27T21:39:15.322Z,12.60
2018-04-27T21:41:48.014Z,12.50
2018-04-27T21:44:28.845Z,12.70
2018-04-27T21:47:02.958Z,12.60
2018-04-27T21:49:31.172Z,12.70
2018-04-27T21:54:53.599Z,12.80
2018-04-27T21:57:28.642Z,12.90
2018-04-27T22:00:06.843Z,12.90
2018-04-27T22:05:51.223Z,12.60
2018-04-27T22:08:35.572Z,12.40
2018-04-27T22:13:57.864Z,12.70
2018-04-27T22:16:43.770Z,12.70
2018-04-27T22:19:16.416Z,12.70
2018-04-27T22:21:48.104Z,12.30
2018-04-27T22:24:19.109Z,12.70
2018-04-27T22:26:47.269Z,12.50
2018-04-27T22:29:25.099Z,12.40
2018-04-27T22:31:58.167Z,12.40
2018-04-27T22:34:29.917Z,12.50
2018-04-27T22:36:58.623Z,12.50
2018-04-27T22:42:29.673Z,12.40
2018-04-27T22:45:17.565Z,12.20
2018-04-27T22:51:08.141Z,12.30
2018-04-27T22:53:37.031Z,12.20
2018-04-27T22:56:05.219Z,12.00
2018-04-27T22:58:33.389Z,12.10
2018-04-27T23:01:21.205Z,12.20
2018-04-27T23:03:49.357Z,12.10
2018-04-27T23:06:17.482Z,12.30
2018-04-27T23:08:50.549Z,12.10
2018-04-27T23:11:21.127Z,12.30
2018-04-27T23:16:49.361Z,12.10
2018-04-27T23:19:19.130Z,12.10
2018-04-27T23:22:04.648Z,12.20
2018-04-27T23:24:37.266Z,11.80
2018-04-27T23:27:05.624Z,12.00
2018-04-27T23:29:33.745Z,12.10
2018-04-27T23:32:02.662Z,12.20
2018-04-27T23:34:30.818Z,12.30
2018-04-27T23:36:58.990Z,12.20
2018-04-27T23:39:27.167Z,12.20
2018-04-27T23:41:55.343Z,12.20
2018-04-27T23:44:23.494Z,12.30
2018-04-27T23:46:52.396Z,12.10
2018-04-27T23:49:21.490Z,12.10
2018-04-27T23:51:50.329Z,12.00
2018-04-27T23:54:18.587Z,11.90
2018-04-27T23:56:47.457Z,11.80
2018-04-27T23:59:17.154Z,11.90
